createdAt,value
2023-01-21T00:00:56.465Z,102246.31
2023-01-21T00:03:23.172Z,102250.09
2023-01-21T00:05:50.027Z,102248.44
2023-01-21T00:08:17.480Z,102254.53
2023-01-21T00:10:44.421Z,102249.16
2023-01-21T00:13:20.064Z,102250.50
2023-01-21T00:15:47.506Z,102249.44
2023-01-21T00:18:14.106Z,102252.38
2023-01-21T00:20:40.965Z,102258.50
2023-01-21T00:23:08.046Z,102251.63
2023-01-21T00:25:34.988Z,102257.03
2023-01-21T00:28:01.856Z,102251.28
2023-01-21T00:30:28.750Z,102242.69
2023-01-21T00:32:56.330Z,102245.91
2023-01-21T00:35:26.684Z,102250.09
2023-01-21T00:37:53.445Z,102249.28
2023-01-21T00:40:20.078Z,102253.06
2023-01-21T00:42:46.854Z,102258.56
2023-01-21T00:45:13.475Z,102256.97
2023-01-21T00:47:40.462Z,102259.13
2023-01-21T00:50:07.520Z,102266.31
2023-01-21T00:52:34.086Z,102272.41
2023-01-21T00:55:01.032Z,102281.25
2023-01-21T00:57:27.911Z,102286.91
2023-01-21T00:59:54.974Z,102291.56
2023-01-21T01:02:21.471Z,102300.09
2023-01-21T01:04:48.164Z,102297.47
2023-01-21T01:07:14.935Z,102304.03
2023-01-21T01:09:41.423Z,102300.41
2023-01-21T01:12:07.893Z,102313.31
2023-01-21T01:14:34.571Z,102318.53
2023-01-21T01:17:01.595Z,102323.53
2023-01-21T01:19:28.452Z,102321.63
2023-01-21T01:21:55.426Z,102325.97
2023-01-21T01:24:22.071Z,102324.78
2023-01-21T01:26:49.034Z,102330.81
2023-01-21T01:29:15.439Z,102327.25
2023-01-21T01:31:44.020Z,102335.69
2023-01-21T01:34:10.481Z,102335.94
2023-01-21T01:36:37.413Z,102333.47
2023-01-21T01:39:05.337Z,102344.53
2023-01-21T01:41:32.634Z,102347.00
2023-01-21T01:44:01.035Z,102350.19
2023-01-21T01:46:37.108Z,102347.78
2023-01-21T01:49:17.433Z,102344.59
2023-01-21T01:51:47.581Z,102354.59
2023-01-21T01:54:18.083Z,102355.88
2023-01-21T01:56:47.442Z,102352.44
2023-01-21T01:59:18.004Z,102362.78
2023-01-21T02:01:44.796Z,102363.72
2023-01-21T02:04:14.535Z,102380.25
2023-01-21T02:06:41.505Z,102382.78
2023-01-21T02:09:08.724Z,102388.63
2023-01-21T02:11:36.615Z,102385.47
2023-01-21T02:14:04.135Z,102379.38
2023-01-21T02:16:43.490Z,102382.78
2023-01-21T02:19:39.171Z,102372.03
2023-01-21T02:22:24.333Z,102383.06
2023-01-21T02:25:11.061Z,102388.22
2023-01-21T02:27:49.415Z,102382.63
2023-01-21T02:30:27.908Z,102379.66
2023-01-21T02:33:07.164Z,102395.13
2023-01-21T02:36:06.213Z,102391.03
2023-01-21T02:38:37.953Z,102391.53
2023-01-21T02:41:21.747Z,102396.22
2023-01-21T02:44:03.496Z,102403.31
2023-01-21T02:46:44.469Z,102404.72
2023-01-21T02:49:37.426Z,102406.09
2023-01-21T02:52:06.913Z,102403.91
2023-01-21T02:54:39.336Z,102408.94
2023-01-21T02:57:13.075Z,102411.94
2023-01-21T02:59:49.523Z,102419.19
2023-01-21T03:02:24.604Z,102431.00
2023-01-21T03:05:00.451Z,102431.56
2023-01-21T03:07:37.822Z,102428.91
2023-01-21T03:10:19.875Z,102430.72
2023-01-21T03:13:00.375Z,102427.09
2023-01-21T03:15:47.140Z,102433.50
2023-01-21T03:18:19.723Z,102434.31
2023-01-21T03:21:09.875Z,102435.03
2023-01-21T03:23:43.903Z,102438.56
2023-01-21T03:26:12.559Z,102437.47
2023-01-21T03:28:43.479Z,102439.59
2023-01-21T03:31:12.555Z,102443.44
2023-01-21T03:33:41.391Z,102439.38
2023-01-21T03:36:20.003Z,102433.84
2023-01-21T03:38:49.970Z,102443.03
2023-01-21T03:41:21.046Z,102450.78
2023-01-21T03:43:47.956Z,102449.78
2023-01-21T03:46:21.924Z,102450.13
2023-01-21T03:49:00.106Z,102454.16
2023-01-21T03:51:32.081Z,102453.16
2023-01-21T03:54:01.102Z,102462.72
2023-01-21T03:56:27.953Z,102464.00
2023-01-21T03:58:58.534Z,102457.53
2023-01-21T04:01:25.553Z,102467.81
2023-01-21T04:03:54.863Z,102463.75
2023-01-21T04:06:23.231Z,102469.13
2023-01-21T04:08:50.183Z,102467.22
2023-01-21T04:11:17.696Z,102466.91
2023-01-21T04:13:44.272Z,102466.34
2023-01-21T04:16:16.819Z,102475.94
2023-01-21T04:18:43.590Z,102478.50
2023-01-21T04:21:13.178Z,102476.06
2023-01-21T04:23:39.736Z,102485.69
2023-01-21T04:26:06.333Z,102483.25
2023-01-21T04:28:32.811Z,102485.38
2023-01-21T04:30:59.716Z,102483.50
2023-01-21T04:33:26.537Z,102488.59
2023-01-21T04:35:59.636Z,102490.09
2023-01-21T04:38:26.892Z,102492.75
2023-01-21T04:40:54.276Z,102490.09
2023-01-21T04:43:23.796Z,102495.16
2023-01-21T04:45:50.592Z,102492.78
2023-01-21T04:48:18.169Z,102498.97
2023-01-21T04:50:46.322Z,102493.56
2023-01-21T04:53:13.108Z,102497.91
2023-01-21T04:55:42.289Z,102499.50
2023-01-21T04:58:10.243Z,102492.00
2023-01-21T05:00:37.000Z,102507.47
2023-01-21T05:03:04.088Z,102514.00
2023-01-21T05:05:30.639Z,102515.22
2023-01-21T05:07:57.222Z,102512.97
2023-01-21T05:10:25.295Z,102517.03
2023-01-21T05:12:51.935Z,102530.81
2023-01-21T05:15:18.563Z,102541.63
2023-01-21T05:17:46.978Z,102543.66
2023-01-21T05:20:13.712Z,102545.03
2023-01-21T05:22:40.944Z,102559.13
2023-01-21T05:25:07.639Z,102555.66
2023-01-21T05:27:34.636Z,102561.47
2023-01-21T05:30:01.657Z,102573.41
2023-01-21T05:32:29.541Z,102572.91
2023-01-21T05:34:56.359Z,102578.97
2023-01-21T05:37:23.324Z,102586.28
2023-01-21T05:39:50.233Z,102585.03
2023-01-21T05:42:17.414Z,102581.78
2023-01-21T05:44:44.125Z,102579.63
2023-01-21T05:47:10.730Z,102586.56
2023-01-21T05:49:38.028Z,102592.25
2023-01-21T05:52:04.794Z,102600.19
2023-01-21T05:54:32.754Z,102598.94
2023-01-21T05:56:59.746Z,102591.34
2023-01-21T05:59:26.591Z,102592.06
2023-01-21T06:01:53.357Z,102599.50
2023-01-21T06:04:20.874Z,102600.94
2023-01-21T06:06:49.905Z,102597.03
2023-01-21T06:09:16.680Z,102607.31
2023-01-21T06:11:44.572Z,102612.75
2023-01-21T06:14:13.536Z,102618.53
2023-01-21T06:16:40.644Z,102617.25
2023-01-21T06:19:07.635Z,102622.19
2023-01-21T06:21:34.131Z,102617.78
2023-01-21T06:24:01.973Z,102624.50
2023-01-21T06:26:28.945Z,102621.25
2023-01-21T06:28:56.934Z,102627.19
2023-01-21T06:31:25.418Z,102634.91
2023-01-21T06:33:52.315Z,102629.94
2023-01-21T06:36:19.383Z,102641.56
2023-01-21T06:38:46.356Z,102640.38
2023-01-21T06:41:13.165Z,102646.69
2023-01-21T06:43:40.121Z,102644.34
2023-01-21T06:46:07.000Z,102645.44
2023-01-21T06:48:33.708Z,102647.59
2023-01-21T06:51:01.252Z,102653.09
2023-01-21T06:53:28.206Z,102655.72
2023-01-21T06:55:55.112Z,102654.59
2023-01-21T06:58:21.635Z,102660.47
2023-01-21T07:00:48.195Z,102667.31
2023-01-21T07:03:14.708Z,102664.16
2023-01-21T07:05:41.581Z,102666.25
2023-01-21T07:08:08.328Z,102673.94
2023-01-21T07:10:36.356Z,102676.47
2023-01-21T07:13:02.843Z,102685.28
2023-01-21T07:15:31.104Z,102687.09
2023-01-21T07:17:58.205Z,102700.56
2023-01-21T07:20:26.121Z,102690.91
2023-01-21T07:22:52.630Z,102703.84
2023-01-21T07:25:19.843Z,102712.31
2023-01-21T07:27:47.491Z,102711.66
2023-01-21T07:30:16.713Z,102709.59
2023-01-21T07:32:43.430Z,102709.13
2023-01-21T07:35:10.945Z,102710.75
2023-01-21T07:37:37.536Z,102713.53
2023-01-21T07:40:07.353Z,102721.38
2023-01-21T07:42:36.262Z,102730.66
2023-01-21T07:45:04.173Z,102727.28
2023-01-21T07:47:30.664Z,102739.66
2023-01-21T07:49:57.152Z,102739.50
2023-01-21T07:52:24.289Z,102738.06
2023-01-21T07:54:50.865Z,102739.22
2023-01-21T07:57:18.130Z,102744.25
2023-01-21T07:59:45.127Z,102739.50
2023-01-21T08:02:12.691Z,102737.53
2023-01-21T08:04:39.826Z,102742.75
2023-01-21T08:07:12.838Z,102742.13
2023-01-21T08:09:39.932Z,102739.38
2023-01-21T08:12:07.949Z,102766.84
2023-01-21T08:14:34.829Z,102758.97
2023-01-21T08:17:01.803Z,102759.41
2023-01-21T08:19:28.963Z,102756.53
2023-01-21T08:21:56.704Z,102754.56
2023-01-21T08:24:24.660Z,102762.06
2023-01-21T08:26:52.561Z,102771.16
2023-01-21T08:29:22.063Z,102773.25
2023-01-21T08:31:52.605Z,102773.34
2023-01-21T08:34:19.753Z,102783.09
2023-01-21T08:36:46.785Z,102783.41
2023-01-21T08:39:19.700Z,102781.06
2023-01-21T08:41:49.717Z,102783.44
2023-01-21T08:44:19.217Z,102787.97
2023-01-21T08:46:47.311Z,102787.19
2023-01-21T08:49:14.501Z,102792.41
2023-01-21T08:51:42.560Z,102803.50
2023-01-21T08:54:09.474Z,102804.53
2023-01-21T08:56:36.168Z,102819.75
2023-01-21T08:59:03.608Z,102822.59
2023-01-21T09:01:30.290Z,102818.72
2023-01-21T09:04:00.247Z,102828.19
2023-01-21T09:06:28.281Z,102703.78
2023-01-21T09:08:55.404Z,102840.88
2023-01-21T09:11:23.623Z,102844.78
2023-01-21T09:13:51.768Z,102842.69
2023-01-21T09:16:20.745Z,102845.28
2023-01-21T09:18:50.520Z,102853.25
2023-01-21T09:21:17.227Z,102853.69
2023-01-21T09:23:44.527Z,102855.34
2023-01-21T09:26:19.325Z,102855.31
2023-01-21T09:28:51.092Z,102856.91
2023-01-21T09:31:18.623Z,102858.19
2023-01-21T09:33:46.736Z,102869.50
2023-01-21T09:36:15.290Z,102870.00
2023-01-21T09:38:46.255Z,102881.66
2023-01-21T09:41:19.016Z,102888.25
2023-01-21T09:43:50.777Z,102888.94
2023-01-21T09:46:47.020Z,102887.56
2023-01-21T09:49:17.791Z,102883.88
2023-01-21T09:51:47.175Z,102892.91
2023-01-21T09:54:33.740Z,102881.66
2023-01-21T09:57:12.645Z,102888.56
2023-01-21T09:59:46.971Z,102889.16
2023-01-21T10:02:26.030Z,102895.38
2023-01-21T10:05:16.284Z,102892.44
2023-01-21T10:07:49.880Z,102888.19
2023-01-21T10:10:21.912Z,102889.25
2023-01-21T10:12:48.247Z,102895.41
2023-01-21T10:15:32.900Z,102884.31
2023-01-21T10:18:15.287Z,102888.34
2023-01-21T10:20:48.476Z,102887.44
2023-01-21T10:23:19.267Z,102886.94
2023-01-21T10:25:48.348Z,102888.56
2023-01-21T10:28:19.881Z,102886.06
2023-01-21T10:30:49.132Z,102877.25
2023-01-21T10:33:26.546Z,102880.91
2023-01-21T10:36:02.288Z,102872.59
2023-01-21T10:38:40.081Z,102870.50
2023-01-21T10:41:26.843Z,102876.38
2023-01-21T10:44:09.766Z,102848.31
2023-01-21T10:46:54.296Z,102853.19
2023-01-21T10:49:38.938Z,102862.88
2023-01-21T10:52:24.290Z,102865.66
2023-01-21T10:55:18.184Z,102875.34
2023-01-21T10:57:54.161Z,102867.78
2023-01-21T11:00:33.660Z,102866.47
2023-01-21T11:03:02.294Z,102873.13
2023-01-21T11:05:30.411Z,102881.25
2023-01-21T11:07:57.107Z,102867.28
2023-01-21T11:10:25.031Z,102864.69
2023-01-21T11:12:51.513Z,102859.56
2023-01-21T11:15:19.718Z,102853.34
2023-01-21T11:17:48.061Z,102869.03
2023-01-21T11:20:35.351Z,102857.41
2023-01-21T11:23:05.572Z,102857.19
2023-01-21T11:25:41.046Z,102865.41
2023-01-21T11:28:24.572Z,102862.78
2023-01-21T11:31:02.417Z,102863.13
2023-01-21T11:33:28.971Z,102861.53
2023-01-21T11:35:55.910Z,102865.25
2023-01-21T11:38:35.450Z,102859.56
2023-01-21T11:41:10.931Z,102854.50
2023-01-21T11:43:40.541Z,102847.16
2023-01-21T11:46:26.204Z,102851.47
2023-01-21T11:49:07.956Z,102847.75
2023-01-21T11:51:35.459Z,102841.41
2023-01-21T11:54:08.349Z,102832.31
2023-01-21T11:56:36.348Z,102833.22
2023-01-21T11:59:11.259Z,102829.75
2023-01-21T12:01:37.761Z,102829.00
2023-01-21T12:04:05.602Z,102818.41
2023-01-21T12:06:33.255Z,102818.41
2023-01-21T12:09:03.067Z,102820.50
2023-01-21T12:11:31.335Z,102817.28
2023-01-21T12:14:03.999Z,102812.66
2023-01-21T12:16:32.725Z,102814.06
2023-01-21T12:18:59.133Z,102810.59
2023-01-21T12:21:38.817Z,102803.41
2023-01-21T12:24:08.651Z,102790.75
2023-01-21T12:26:42.303Z,102791.50
2023-01-21T12:29:09.115Z,102790.91
2023-01-21T12:31:37.765Z,102796.31
2023-01-21T12:34:29.184Z,102791.00
2023-01-21T12:37:19.645Z,102791.91
2023-01-21T12:39:47.516Z,102788.97
2023-01-21T12:42:16.607Z,102784.13
2023-01-21T12:44:49.919Z,102795.28
2023-01-21T12:47:36.728Z,102793.81
2023-01-21T12:50:05.654Z,102788.47
2023-01-21T12:52:32.036Z,102797.81
2023-01-21T12:55:07.756Z,102794.84
2023-01-21T12:57:52.973Z,102795.53
2023-01-21T13:00:25.575Z,102797.03
2023-01-21T13:02:56.634Z,102790.88
2023-01-21T13:05:35.562Z,102790.19
2023-01-21T13:08:14.157Z,102796.63
2023-01-21T13:13:38.992Z,102796.81
2023-01-21T13:16:08.099Z,102803.84
2023-01-21T13:18:36.028Z,102805.53
2023-01-21T13:21:20.650Z,102803.84
2023-01-21T13:23:51.720Z,102810.66
2023-01-21T13:26:41.010Z,102812.34
2023-01-21T13:29:11.447Z,102810.00
2023-01-21T13:31:47.562Z,102824.53
2023-01-21T13:34:23.792Z,102819.16
2023-01-21T13:37:03.132Z,102823.72
2023-01-21T13:39:35.637Z,102857.41
2023-01-21T13:42:28.667Z,102829.41
2023-01-21T13:45:15.828Z,102822.09
2023-01-21T13:47:48.613Z,102816.72
2023-01-21T13:50:18.379Z,102816.91
2023-01-21T13:53:04.010Z,102829.13
2023-01-21T13:55:43.572Z,102822.00
2023-01-21T13:58:14.196Z,102828.44
2023-01-21T14:00:47.080Z,102835.97
2023-01-21T14:03:13.603Z,102828.16
2023-01-21T14:05:41.004Z,102829.94
2023-01-21T14:08:11.625Z,102836.28
2023-01-21T14:10:46.167Z,102841.31
2023-01-21T14:13:32.819Z,102832.81
2023-01-21T14:16:17.312Z,102844.97
2023-01-21T14:18:47.353Z,102841.56
2023-01-21T14:21:29.046Z,102850.00
2023-01-21T14:24:03.738Z,102863.19
2023-01-21T14:26:38.571Z,102855.53
2023-01-21T14:29:10.760Z,102860.66
2023-01-21T14:31:41.580Z,102861.38
2023-01-21T14:34:20.952Z,102869.63
2023-01-21T14:37:09.253Z,102867.34
2023-01-21T14:39:42.281Z,102868.53
2023-01-21T14:42:13.365Z,102879.38
2023-01-21T14:44:52.941Z,102879.19
2023-01-21T14:47:23.621Z,102878.56
2023-01-21T14:49:51.802Z,102875.28
2023-01-21T14:52:43.411Z,102877.56
2023-01-21T14:55:29.077Z,102873.56
2023-01-21T14:57:57.942Z,102877.94
2023-01-21T15:00:33.276Z,102879.00
2023-01-21T15:03:03.750Z,102884.09
2023-01-21T15:05:33.783Z,102882.88
2023-01-21T15:08:00.178Z,102884.22
2023-01-21T15:10:31.508Z,102890.09
2023-01-21T15:13:01.176Z,102896.28
2023-01-21T15:15:37.214Z,102892.50
2023-01-21T15:18:24.434Z,102897.34
2023-01-21T15:21:02.464Z,102906.22
2023-01-21T15:23:38.798Z,102910.75
2023-01-21T15:26:10.180Z,102904.16
2023-01-21T15:28:51.476Z,102904.31
2023-01-21T15:31:23.753Z,102906.09
2023-01-21T15:33:59.121Z,102910.16
2023-01-21T15:36:31.224Z,102915.03
2023-01-21T15:39:02.715Z,102908.72
2023-01-21T15:41:47.891Z,102917.06
2023-01-21T15:44:16.853Z,102922.41
2023-01-21T15:46:58.710Z,102920.38
2023-01-21T15:49:28.996Z,102931.03
2023-01-21T15:52:21.062Z,102925.72
2023-01-21T15:54:57.810Z,102935.34
2023-01-21T15:57:35.549Z,102943.00
2023-01-21T16:00:10.296Z,102931.69
2023-01-21T16:02:48.799Z,102928.41
2023-01-21T16:05:15.612Z,102934.84
2023-01-21T16:08:07.081Z,102937.69
2023-01-21T16:14:18.845Z,102936.22
2023-01-21T16:17:06.897Z,102926.84
2023-01-21T16:19:36.253Z,102929.53
2023-01-21T16:22:07.533Z,102916.88
2023-01-21T16:24:38.821Z,102918.28
2023-01-21T16:27:19.179Z,102924.00
2023-01-21T16:29:54.239Z,102922.06
2023-01-21T16:32:21.039Z,102923.72
2023-01-21T16:34:48.867Z,102915.81
2023-01-21T16:37:17.040Z,102916.38
2023-01-21T16:39:47.345Z,102912.81
2023-01-21T16:42:36.928Z,102914.31
2023-01-21T16:45:09.253Z,102916.72
2023-01-21T16:47:37.011Z,102916.69
2023-01-21T16:50:17.589Z,102914.34
2023-01-21T16:52:44.350Z,102902.34
2023-01-21T16:55:19.076Z,102904.47
2023-01-21T16:57:50.098Z,102911.47
2023-01-21T17:00:30.287Z,102918.44
2023-01-21T17:02:59.603Z,102916.09
2023-01-21T17:05:29.292Z,102913.47
2023-01-21T17:07:59.342Z,102909.63
2023-01-21T17:10:29.052Z,102905.63
2023-01-21T17:12:59.239Z,102906.19
2023-01-21T17:15:29.585Z,102908.53
2023-01-21T17:17:58.236Z,102904.75
2023-01-21T17:20:40.293Z,102900.78
2023-01-21T17:23:16.039Z,102901.63
2023-01-21T17:26:05.572Z,102914.97
2023-01-21T17:28:40.807Z,102913.28
2023-01-21T17:31:16.537Z,102912.59
2023-01-21T17:33:44.421Z,102915.16
2023-01-21T17:36:15.878Z,102913.97
2023-01-21T17:38:44.004Z,102911.03
2023-01-21T17:41:23.861Z,102924.72
2023-01-21T17:43:54.384Z,102927.25
2023-01-21T17:46:23.138Z,102924.44
2023-01-21T17:48:52.224Z,102923.13
2023-01-21T17:51:25.937Z,102915.72
2023-01-21T17:53:55.875Z,102918.88
2023-01-21T17:56:35.640Z,102918.50
2023-01-21T17:59:02.711Z,102919.88
2023-01-21T18:01:29.963Z,102924.44
2023-01-21T18:03:56.977Z,102919.25
2023-01-21T18:06:26.886Z,102915.44
2023-01-21T18:08:55.340Z,102916.38
2023-01-21T18:11:23.572Z,102922.22
2023-01-21T18:13:53.479Z,102921.59
2023-01-21T18:16:21.527Z,102921.09
2023-01-21T18:18:50.425Z,102930.19
2023-01-21T18:21:19.507Z,102930.81
2023-01-21T18:23:47.306Z,102932.56
2023-01-21T18:26:25.390Z,102933.25
2023-01-21T18:28:52.472Z,102968.41
2023-01-21T18:31:21.174Z,102934.75
2023-01-21T18:33:49.476Z,102942.78
2023-01-21T18:36:18.255Z,102935.47
2023-01-21T18:38:45.457Z,102933.13
2023-01-21T18:41:15.185Z,102933.69
2023-01-21T18:43:43.032Z,102940.25
2023-01-21T18:46:12.427Z,102933.06
2023-01-21T18:48:41.042Z,102935.47
2023-01-21T18:51:09.599Z,102942.66
2023-01-21T18:53:37.205Z,102935.75
2023-01-21T18:56:06.244Z,102942.06
2023-01-21T18:58:33.833Z,102933.25
2023-01-21T19:01:10.868Z,102940.44
2023-01-21T19:03:45.486Z,102937.06
2023-01-21T19:06:14.445Z,102935.78
2023-01-21T19:08:44.873Z,102929.94
2023-01-21T19:11:13.488Z,102933.81
2023-01-21T19:13:40.751Z,102933.16
2023-01-21T19:16:14.397Z,102928.75
2023-01-21T19:18:41.025Z,102930.78
2023-01-21T19:21:08.588Z,102927.09
2023-01-21T19:23:35.874Z,102927.81
2023-01-21T19:26:03.527Z,102918.03
2023-01-21T19:28:31.006Z,102916.09
2023-01-21T19:30:58.495Z,102924.94
2023-01-21T19:33:25.838Z,102930.94
2023-01-21T19:36:00.482Z,102926.69
2023-01-21T19:38:27.459Z,102920.34
2023-01-21T19:40:54.951Z,102916.88
2023-01-21T19:43:22.187Z,102916.50
2023-01-21T19:45:49.976Z,102919.84
2023-01-21T19:48:18.904Z,102920.66
2023-01-21T19:50:46.505Z,102913.53
2023-01-21T19:53:16.040Z,102911.16
2023-01-21T19:55:43.053Z,102918.22
2023-01-21T19:58:19.920Z,102913.69
2023-01-21T20:00:55.107Z,102914.06
2023-01-21T20:03:22.895Z,102914.91
2023-01-21T20:05:52.258Z,102918.13
2023-01-21T20:08:23.959Z,102915.00
2023-01-21T20:10:56.590Z,102928.09
2023-01-21T20:13:24.109Z,102921.50
2023-01-21T20:15:52.178Z,102916.19
2023-01-21T20:18:26.318Z,102923.47
2023-01-21T20:20:56.836Z,102924.25
2023-01-21T20:23:25.534Z,102917.09
2023-01-21T20:25:55.639Z,102920.06
2023-01-21T20:28:24.162Z,102919.38
2023-01-21T20:30:51.683Z,102917.44
2023-01-21T20:33:19.278Z,102912.47
2023-01-21T20:36:12.242Z,102924.78
2023-01-21T20:38:43.469Z,102920.22
2023-01-21T20:41:11.426Z,102918.53
2023-01-21T20:43:41.518Z,102929.00
2023-01-21T20:46:19.886Z,102912.03
2023-01-21T20:48:46.861Z,102915.47
2023-01-21T20:51:16.395Z,102924.41
2023-01-21T20:53:43.286Z,102927.56
2023-01-21T20:56:19.251Z,102930.00
2023-01-21T20:58:48.344Z,102932.75
2023-01-21T21:01:16.440Z,102927.03
2023-01-21T21:03:43.259Z,102932.00
2023-01-21T21:06:20.384Z,102939.16
2023-01-21T21:08:47.581Z,102935.31
2023-01-21T21:11:15.516Z,102924.00
2023-01-21T21:13:42.715Z,102928.09
2023-01-21T21:16:16.766Z,102942.38
2023-01-21T21:18:44.997Z,102932.84
2023-01-21T21:21:12.487Z,102948.50
2023-01-21T21:23:52.862Z,102941.00
2023-01-21T21:26:24.216Z,102939.69
2023-01-21T21:28:54.924Z,102943.09
2023-01-21T21:31:22.504Z,102936.13
2023-01-21T21:33:49.673Z,102938.03
2023-01-21T21:36:18.946Z,102941.13
2023-01-21T21:38:46.080Z,102934.22
2023-01-21T21:41:32.896Z,102932.63
2023-01-21T21:43:59.858Z,102935.88
2023-01-21T21:46:45.411Z,102937.56
2023-01-21T21:49:14.655Z,102927.03
2023-01-21T21:51:41.382Z,102927.97
2023-01-21T21:54:14.205Z,102929.47
2023-01-21T21:56:41.178Z,102935.47
2023-01-21T21:59:08.787Z,102931.28
2023-01-21T22:01:36.216Z,102926.09
2023-01-21T22:04:06.892Z,102942.06
2023-01-21T22:06:33.386Z,102944.94
2023-01-21T22:09:00.150Z,102933.03
2023-01-21T22:11:28.405Z,102939.41
2023-01-21T22:13:56.152Z,102936.09
2023-01-21T22:16:27.759Z,102937.78
2023-01-21T22:18:55.075Z,102933.44
2023-01-21T22:21:34.667Z,102928.72
2023-01-21T22:24:03.006Z,102937.91
2023-01-21T22:26:31.699Z,102934.28
2023-01-21T22:28:59.653Z,102935.19
2023-01-21T22:31:29.168Z,102932.81
2023-01-21T22:33:57.206Z,102923.63
2023-01-21T22:36:24.704Z,102927.44
2023-01-21T22:38:53.416Z,102930.59
2023-01-21T22:41:22.582Z,102932.63
2023-01-21T22:43:49.888Z,102925.72
2023-01-21T22:46:22.748Z,102934.13
2023-01-21T22:48:49.796Z,102940.59
2023-01-21T22:51:18.825Z,102939.28
2023-01-21T22:53:46.221Z,102937.66
2023-01-21T22:56:13.999Z,102937.31
2023-01-21T22:58:40.856Z,102935.59
2023-01-21T23:01:09.082Z,102935.88
2023-01-21T23:03:38.268Z,102939.66
2023-01-21T23:06:07.088Z,102940.59
2023-01-21T23:08:34.525Z,102927.41
2023-01-21T23:11:03.312Z,102931.69
2023-01-21T23:13:31.180Z,102927.44
2023-01-21T23:15:59.593Z,102921.78
2023-01-21T23:18:27.094Z,102928.09
2023-01-21T23:20:55.501Z,102923.75
2023-01-21T23:23:27.044Z,102921.41
2023-01-21T23:25:56.666Z,102923.22
2023-01-21T23:28:26.662Z,102919.00
2023-01-21T23:30:58.815Z,102912.94
2023-01-21T23:33:26.265Z,102918.72
2023-01-21T23:35:56.579Z,102913.72
2023-01-21T23:38:27.309Z,102918.19
2023-01-21T23:40:57.970Z,102915.19
2023-01-21T23:43:31.303Z,102917.03
2023-01-21T23:46:02.962Z,102929.66
2023-01-21T23:48:38.568Z,102927.69
2023-01-21T23:51:09.331Z,102925.34
2023-01-21T23:53:36.573Z,102919.84
2023-01-21T23:56:22.671Z,102915.84
2023-01-21T23:58:50.024Z,102908.66
